sensor_id;sensor_type;location;lat;lon;timestamp;pressure;altitude;pressure_sealevel;temperature;humidity
71057;BME280;58380;48.312;9.246;2023-01-30T07:36:11;93881.56;;;-6.85;97.88
71057;BME280;58380;48.312;9.246;2023-01-30T07:38:36;93875.75;;;-6.87;97.97
71057;BME280;58380;48.312;9.246;2023-01-30T07:41:02;93826.38;;;-7.17;98.06
71057;BME280;58380;48.312;9.246;2023-01-30T07:43:27;93810.34;;;-7.19;97.81
71057;BME280;58380;48.312;9.246;2023-01-30T07:45:53;93858.31;;;-6.84;97.79
71057;BME280;58380;48.312;9.246;2023-01-30T07:48:19;93884.72;;;-6.56;97.68
71057;BME280;58380;48.312;9.246;2023-01-30T07:50:45;93960.06;;;-5.85;97.35
71057;BME280;58380;48.312;9.246;2023-01-30T07:53:13;93868.03;;;-6.34;96.42
71057;BME280;58380;48.312;9.246;2023-01-30T07:55:41;93870.66;;;-6.25;96.45
71057;BME280;58380;48.312;9.246;2023-01-30T07:58:07;93958.56;;;-5.70;96.42
71057;BME280;58380;48.312;9.246;2023-01-30T08:00:35;93927.09;;;-5.90;96.47
71057;BME280;58380;48.312;9.246;2023-01-30T08:03:00;93923.72;;;-5.90;95.75
71057;BME280;58380;48.312;9.246;2023-01-30T08:05:26;93905.72;;;-5.98;96.14
71057;BME280;58380;48.312;9.246;2023-01-30T08:07:51;93929.34;;;-5.95;96.61
71057;BME280;58380;48.312;9.246;2023-01-30T08:10:20;93884.88;;;-6.13;96.71
71057;BME280;58380;48.312;9.246;2023-01-30T08:12:45;93868.91;;;-6.25;96.88
71057;BME280;58380;48.312;9.246;2023-01-30T08:15:11;93991.22;;;-5.44;97.17
71057;BME280;58380;48.312;9.246;2023-01-30T08:17:36;93902.56;;;-5.84;97.05
71057;BME280;58380;48.312;9.246;2023-01-30T08:20:02;93892.81;;;-5.72;96.78
71057;BME280;58380;48.312;9.246;2023-01-30T08:22:28;93971.09;;;-5.14;96.80
71057;BME280;58380;48.312;9.246;2023-01-30T08:24:54;93899.53;;;-5.45;96.06
71057;BME280;58380;48.312;9.246;2023-01-30T08:27:20;93868.97;;;-5.56;96.50
71057;BME280;58380;48.312;9.246;2023-01-30T08:29:45;93965.72;;;-4.87;96.81
71057;BME280;58380;48.312;9.246;2023-01-30T08:32:10;93903.72;;;-5.10;96.71
71057;BME280;58380;48.312;9.246;2023-01-30T08:34:36;93929.00;;;-4.97;96.92
71057;BME280;58380;48.312;9.246;2023-01-30T08:37:02;93971.63;;;-4.60;96.96
71057;BME280;58380;48.312;9.246;2023-01-30T08:39:28;93989.06;;;-4.29;97.22
71057;BME280;58380;48.312;9.246;2023-01-30T08:41:53;93925.25;;;-4.68;96.75
71057;BME280;58380;48.312;9.246;2023-01-30T08:44:19;93865.78;;;-5.00;96.64
71057;BME280;58380;48.312;9.246;2023-01-30T08:46:44;93988.16;;;-4.04;97.07
71057;BME280;58380;48.312;9.246;2023-01-30T08:49:10;93803.66;;;-5.05;96.97
71057;BME280;58380;48.312;9.246;2023-01-30T08:51:36;93838.00;;;-4.71;97.16
71057;BME280;58380;48.312;9.246;2023-01-30T08:54:02;93839.78;;;-4.56;96.83
71057;BME280;58380;48.312;9.246;2023-01-30T08:56:27;93885.53;;;-4.17;96.73
71057;BME280;58380;48.312;9.246;2023-01-30T08:58:53;93841.06;;;-4.43;96.70
71057;BME280;58380;48.312;9.246;2023-01-30T09:01:18;93870.34;;;-3.87;97.28
71057;BME280;58380;48.312;9.246;2023-01-30T09:03:44;93966.44;;;-3.05;96.51
71057;BME280;58380;48.312;9.246;2023-01-30T09:06:10;93845.41;;;-3.47;96.29
71057;BME280;58380;48.312;9.246;2023-01-30T09:08:35;93937.25;;;-2.66;96.07
71057;BME280;58380;48.312;9.246;2023-01-30T09:11:02;93911.31;;;-2.49;95.74
71057;BME280;58380;48.312;9.246;2023-01-30T09:13:29;93957.53;;;-2.00;95.79
71057;BME280;58380;48.312;9.246;2023-01-30T09:15:56;93966.69;;;-1.89;95.67
71057;BME280;58380;48.312;9.246;2023-01-30T09:18:22;93946.72;;;-2.04;95.94
71057;BME280;58380;48.312;9.246;2023-01-30T09:20:48;93976.97;;;-1.81;95.71
71057;BME280;58380;48.312;9.246;2023-01-30T09:23:14;93952.59;;;-1.87;96.11
71057;BME280;58380;48.312;9.246;2023-01-30T09:25:43;93956.94;;;-1.87;95.42
71057;BME280;58380;48.312;9.246;2023-01-30T09:28:09;93910.53;;;-2.04;95.34
71057;BME280;58380;48.312;9.246;2023-01-30T09:30:34;93919.75;;;-1.86;95.09
71057;BME280;58380;48.312;9.246;2023-01-30T09:33:00;93939.88;;;-1.74;95.00
71057;BME280;58380;48.312;9.246;2023-01-30T09:35:25;93926.69;;;-1.64;94.80
71057;BME280;58380;48.312;9.246;2023-01-30T09:37:52;93945.09;;;-1.44;94.50
71057;BME280;58380;48.312;9.246;2023-01-30T09:40:25;93946.38;;;-1.25;94.50
71057;BME280;58380;48.312;9.246;2023-01-30T09:46:21;93870.13;;;-1.37;92.92
71057;BME280;58380;48.312;9.246;2023-01-30T09:52:34;93916.72;;;-1.22;92.85
71057;BME280;58380;48.312;9.246;2023-01-30T09:55:25;93941.13;;;-1.02;93.51
71057;BME280;58380;48.312;9.246;2023-01-30T09:57:56;93911.19;;;-1.19;93.43
71057;BME280;58380;48.312;9.246;2023-01-30T10:00:40;93899.69;;;-1.17;93.49
71057;BME280;58380;48.312;9.246;2023-01-30T10:03:13;93906.63;;;-1.02;93.90
71057;BME280;58380;48.312;9.246;2023-01-30T10:05:47;93934.94;;;-0.71;93.40
71057;BME280;58380;48.312;9.246;2023-01-30T10:14:04;93901.38;;;-0.58;91.35
71057;BME280;58380;48.312;9.246;2023-01-30T10:25:25;93848.97;;;-0.10;90.75
71057;BME280;58380;48.312;9.246;2023-01-30T10:28:02;93865.81;;;0.22;89.76
71057;BME280;58380;48.312;9.246;2023-01-30T10:30:30;93829.84;;;0.19;91.46
71057;BME280;58380;48.312;9.246;2023-01-30T10:33:02;93812.13;;;0.23;90.60
71057;BME280;58380;48.312;9.246;2023-01-30T10:35:35;93804.75;;;0.26;90.32
71057;BME280;58380;48.312;9.246;2023-01-30T10:38:09;93843.31;;;0.64;89.85
71057;BME280;58380;48.312;9.246;2023-01-30T10:40:59;93853.91;;;0.62;88.97
71057;BME280;58380;48.312;9.246;2023-01-30T10:43:46;93826.13;;;0.63;89.30
71057;BME280;58380;48.312;9.246;2023-01-30T11:01:23;93842.50;;;0.98;90.02
71057;BME280;58380;48.312;9.246;2023-01-30T11:04:12;93808.66;;;0.85;89.96
71057;BME280;58380;48.312;9.246;2023-01-30T11:06:43;93804.47;;;0.91;89.40
71057;BME280;58380;48.312;9.246;2023-01-30T11:09:09;93824.91;;;1.07;89.91
71057;BME280;58380;48.312;9.246;2023-01-30T11:11:47;93818.94;;;1.06;89.91
71057;BME280;58380;48.312;9.246;2023-01-30T11:14:15;93795.91;;;0.97;89.73
71057;BME280;58380;48.312;9.246;2023-01-30T11:16:49;93830.03;;;1.35;89.72
71057;BME280;58380;48.312;9.246;2023-01-30T11:19:22;93826.25;;;1.44;89.23
71057;BME280;58380;48.312;9.246;2023-01-30T11:21:51;93826.25;;;1.44;89.76
71057;BME280;58380;48.312;9.246;2023-01-30T11:24:28;93842.66;;;1.45;88.80
71057;BME280;58380;48.312;9.246;2023-01-30T11:27:20;93829.66;;;1.45;89.93
71057;BME280;58380;48.312;9.246;2023-01-30T11:30:12;93813.59;;;1.28;89.64
71057;BME280;58380;48.312;9.246;2023-01-30T11:32:41;93834.06;;;1.51;89.49
71057;BME280;58380;48.312;9.246;2023-01-30T11:37:38;93789.41;;;1.34;88.77
71057;BME280;58380;48.312;9.246;2023-01-30T11:42:48;93797.03;;;1.36;89.14
71057;BME280;58380;48.312;9.246;2023-01-30T11:45:23;93799.22;;;1.39;89.15
71057;BME280;58380;48.312;9.246;2023-01-30T11:47:56;93803.44;;;1.60;88.23
71057;BME280;58380;48.312;9.246;2023-01-30T11:50:37;93787.84;;;1.46;88.12
71057;BME280;58380;48.312;9.246;2023-01-30T11:53:15;93793.25;;;1.45;87.96
71057;BME280;58380;48.312;9.246;2023-01-30T11:55:47;93793.03;;;1.60;87.99
71057;BME280;58380;48.312;9.246;2023-01-30T11:58:13;93794.47;;;1.62;88.08
71057;BME280;58380;48.312;9.246;2023-01-30T12:00:42;93806.88;;;1.60;87.31
71057;BME280;58380;48.312;9.246;2023-01-30T12:03:15;93808.28;;;1.63;87.38
71057;BME280;58380;48.312;9.246;2023-01-30T12:05:46;93755.00;;;1.39;87.09
71057;BME280;58380;48.312;9.246;2023-01-30T12:10:54;93812.69;;;1.76;86.90
71057;BME280;58380;48.312;9.246;2023-01-30T12:13:33;93795.47;;;1.68;87.08
71057;BME280;58380;48.312;9.246;2023-01-30T12:16:18;93787.06;;;1.66;87.04
71057;BME280;58380;48.312;9.246;2023-01-30T12:19:04;93764.84;;;1.50;86.75
71057;BME280;58380;48.312;9.246;2023-01-30T12:21:48;93785.47;;;1.65;86.93
71057;BME280;58380;48.312;9.246;2023-01-30T12:24:25;93766.63;;;1.56;86.60
71057;BME280;58380;48.312;9.246;2023-01-30T12:27:18;93782.66;;;1.66;86.63
71057;BME280;58380;48.312;9.246;2023-01-30T12:33:00;93790.06;;;1.76;86.34
71057;BME280;58380;48.312;9.246;2023-01-30T12:35:48;93801.47;;;1.82;86.58
71057;BME280;58380;48.312;9.246;2023-01-30T12:47:31;93747.84;;;1.61;86.51
71057;BME280;58380;48.312;9.246;2023-01-30T12:50:32;93770.06;;;1.63;86.12
71057;BME280;58380;48.312;9.246;2023-01-30T12:56:15;93759.03;;;1.55;86.77
71057;BME280;58380;48.312;9.246;2023-01-30T13:05:15;93769.59;;;1.40;87.63
71057;BME280;58380;48.312;9.246;2023-01-30T13:11:25;93716.53;;;1.01;88.10
71057;BME280;58380;48.312;9.246;2023-01-30T13:19:56;93758.16;;;1.14;90.07
71057;BME280;58380;48.312;9.246;2023-01-30T13:22:38;93722.09;;;0.84;91.18
71057;BME280;58380;48.312;9.246;2023-01-30T13:27:59;93780.94;;;1.05;91.84
71057;BME280;58380;48.312;9.246;2023-01-30T13:30:28;93789.94;;;1.10;92.04
71057;BME280;58380;48.312;9.246;2023-01-30T13:33:00;93772.91;;;0.94;92.32
71057;BME280;58380;48.312;9.246;2023-01-30T13:35:36;93795.13;;;1.10;91.87
71057;BME280;58380;48.312;9.246;2023-01-30T13:38:16;93766.91;;;0.93;92.55
71057;BME280;58380;48.312;9.246;2023-01-30T13:40:46;93778.91;;;0.94;92.80
71057;BME280;58380;48.312;9.246;2023-01-30T13:43:22;93778.28;;;0.92;93.02
71057;BME280;58380;48.312;9.246;2023-01-30T13:45:56;93778.88;;;0.88;93.11
71057;BME280;58380;48.312;9.246;2023-01-30T13:57:18;93817.66;;;0.89;93.53
71057;BME280;58380;48.312;9.246;2023-01-30T14:08:20;93831.41;;;0.76;95.25
71057;BME280;58380;48.312;9.246;2023-01-30T14:10:49;93800.69;;;0.52;95.83
71057;BME280;58380;48.312;9.246;2023-01-30T14:13:16;93810.28;;;0.51;96.64
71057;BME280;58380;48.312;9.246;2023-01-30T14:18:33;93843.47;;;0.56;95.94
71057;BME280;58380;48.312;9.246;2023-01-30T14:21:17;93799.94;;;0.30;96.79
71057;BME280;58380;48.312;9.246;2023-01-30T14:23:59;93831.84;;;0.52;96.74
71057;BME280;58380;48.312;9.246;2023-01-30T14:26:58;93837.91;;;0.59;97.51
71057;BME280;58380;48.312;9.246;2023-01-30T14:37:44;93854.59;;;0.43;99.15
71057;BME280;58380;48.312;9.246;2023-01-30T14:45:53;93859.22;;;0.48;99.79
71057;BME280;58380;48.312;9.246;2023-01-30T14:51:21;93867.69;;;0.35;100.00
71057;BME280;58380;48.312;9.246;2023-01-30T14:57:00;93871.81;;;0.23;99.65
71057;BME280;58380;48.312;9.246;2023-01-30T15:19:44;93930.53;;;0.02;100.00
71057;BME280;58380;48.312;9.246;2023-01-30T15:22:45;93911.38;;;-0.18;100.00
71057;BME280;58380;48.312;9.246;2023-01-30T15:29:10;93920.81;;;-0.11;100.00
71057;BME280;58380;48.312;9.246;2023-01-30T15:32:19;93947.94;;;-0.13;100.00
71057;BME280;58380;48.312;9.246;2023-01-30T15:34:58;93947.03;;;-0.27;100.00
71057;BME280;58380;48.312;9.246;2023-01-30T15:37:37;93950.50;;;-0.20;100.00
71057;BME280;58380;48.312;9.246;2023-01-30T15:42:42;93948.09;;;-0.36;100.00
71057;BME280;58380;48.312;9.246;2023-01-30T15:51:01;93972.44;;;-0.37;100.00
71057;BME280;58380;48.312;9.246;2023-01-30T15:53:32;93982.72;;;-0.29;100.00
71057;BME280;58380;48.312;9.246;2023-01-30T15:56:01;93991.28;;;-0.29;100.00
71057;BME280;58380;48.312;9.246;2023-01-30T15:58:39;93984.78;;;-0.39;100.00
71057;BME280;58380;48.312;9.246;2023-01-30T16:01:08;93988.97;;;-0.38;99.68
71057;BME280;58380;48.312;9.246;2023-01-30T16:03:40;93987.13;;;-0.45;99.86
71057;BME280;58380;48.312;9.246;2023-01-30T16:06:20;93953.97;;;-0.64;100.00
71057;BME280;58380;48.312;9.246;2023-01-30T16:11:49;93994.13;;;-0.60;100.00
71057;BME280;58380;48.312;9.246;2023-01-30T16:14:17;93969.97;;;-0.75;100.00
71057;BME280;58380;48.312;9.246;2023-01-30T16:16:52;94000.53;;;-0.56;100.00
71057;BME280;58380;48.312;9.246;2023-01-30T16:19:29;93990.63;;;-0.67;100.00
71057;BME280;58380;48.312;9.246;2023-01-30T16:22:00;94020.09;;;-0.53;100.00
71057;BME280;58380;48.312;9.246;2023-01-30T16:24:33;94008.03;;;-0.61;100.00
71057;BME280;58380;48.312;9.246;2023-01-30T16:27:04;94027.34;;;-0.49;100.00
71057;BME280;58380;48.312;9.246;2023-01-30T16:29:49;94031.66;;;-0.56;100.00
71057;BME280;58380;48.312;9.246;2023-01-30T16:32:28;93995.34;;;-0.85;100.00
71057;BME280;58380;48.312;9.246;2023-01-30T16:35:23;94032.09;;;-0.52;100.00
71057;BME280;58380;48.312;9.246;2023-01-30T16:37:53;94019.56;;;-0.63;100.00
71057;BME280;58380;48.312;9.246;2023-01-30T16:40:22;93997.88;;;-0.77;100.00
71057;BME280;58380;48.312;9.246;2023-01-30T16:43:18;94045.66;;;-0.50;100.00
71057;BME280;58380;48.312;9.246;2023-01-30T16:50:45;94059.72;;;-0.59;100.00
71057;BME280;58380;48.312;9.246;2023-01-30T16:53:17;94060.78;;;-0.54;100.00
71057;BME280;58380;48.312;9.246;2023-01-30T16:56:06;94059.81;;;-0.53;100.00
71057;BME280;58380;48.312;9.246;2023-01-30T16:58:35;94038.72;;;-0.64;100.00
71057;BME280;58380;48.312;9.246;2023-01-30T17:01:07;94060.44;;;-0.51;100.00
71057;BME280;58380;48.312;9.246;2023-01-30T17:03:39;94033.06;;;-0.68;100.00
71057;BME280;58380;48.312;9.246;2023-01-30T17:06:40;94007.06;;;-0.90;100.00
71057;BME280;58380;48.312;9.246;2023-01-30T17:09:42;94062.41;;;-0.53;100.00
71057;BME280;58380;48.312;9.246;2023-01-30T17:17:43;94074.81;;;-0.63;99.00
71057;BME280;58380;48.312;9.246;2023-01-30T17:20:10;94065.81;;;-0.67;99.16
71057;BME280;58380;48.312;9.246;2023-01-30T17:22:39;94080.28;;;-0.58;99.09
71057;BME280;58380;48.312;9.246;2023-01-30T17:25:27;94091.38;;;-0.49;99.41
71057;BME280;58380;48.312;9.246;2023-01-30T17:27:57;94029.03;;;-0.85;99.26
71057;BME280;58380;48.312;9.246;2023-01-30T17:30:23;94087.00;;;-0.49;99.31
71057;BME280;58380;48.312;9.246;2023-01-30T17:32:49;94090.22;;;-0.47;98.99
71057;BME280;58380;48.312;9.246;2023-01-30T17:35:15;94079.22;;;-0.49;99.06
71057;BME280;58380;48.312;9.246;2023-01-30T17:37:41;94054.81;;;-0.69;99.29
71057;BME280;58380;48.312;9.246;2023-01-30T17:40:32;94093.34;;;-0.51;99.37
71057;BME280;58380;48.312;9.246;2023-01-30T17:42:59;94078.78;;;-0.67;99.11
71057;BME280;58380;48.312;9.246;2023-01-30T17:45:25;94067.31;;;-0.73;99.07
71057;BME280;58380;48.312;9.246;2023-01-30T17:47:50;94090.66;;;-0.58;98.97
71057;BME280;58380;48.312;9.246;2023-01-30T17:50:16;94103.59;;;-0.58;98.78
71057;BME280;58380;48.312;9.246;2023-01-30T17:52:41;94086.19;;;-0.64;99.02
71057;BME280;58380;48.312;9.246;2023-01-30T17:55:10;94120.88;;;-0.50;99.39
71057;BME280;58380;48.312;9.246;2023-01-30T17:57:38;94105.28;;;-0.65;99.83
71057;BME280;58380;48.312;9.246;2023-01-30T18:00:06;94093.97;;;-0.64;99.69
71057;BME280;58380;48.312;9.246;2023-01-30T18:02:37;94118.28;;;-0.50;100.00
71057;BME280;58380;48.312;9.246;2023-01-30T18:05:03;94089.31;;;-0.69;100.00
71057;BME280;58380;48.312;9.246;2023-01-30T18:07:29;94112.66;;;-0.54;100.00
71057;BME280;58380;48.312;9.246;2023-01-30T18:09:54;94127.84;;;-0.51;100.00
71057;BME280;58380;48.312;9.246;2023-01-30T18:12:20;94114.97;;;-0.59;100.00
71057;BME280;58380;48.312;9.246;2023-01-30T18:14:45;94123.81;;;-0.53;100.00
71057;BME280;58380;48.312;9.246;2023-01-30T18:17:11;94142.44;;;-0.50;100.00
71057;BME280;58380;48.312;9.246;2023-01-30T18:19:37;94085.38;;;-0.79;100.00
71057;BME280;58380;48.312;9.246;2023-01-30T18:22:02;94141.44;;;-0.49;100.00
71057;BME280;58380;48.312;9.246;2023-01-30T18:24:28;94138.06;;;-0.49;100.00
71057;BME280;58380;48.312;9.246;2023-01-30T18:26:53;94122.13;;;-0.61;100.00
71057;BME280;58380;48.312;9.246;2023-01-30T18:29:19;94152.81;;;-0.50;100.00
71057;BME280;58380;48.312;9.246;2023-01-30T18:31:45;94150.22;;;-0.50;100.00
71057;BME280;58380;48.312;9.246;2023-01-30T18:34:11;94131.69;;;-0.61;100.00
71057;BME280;58380;48.312;9.246;2023-01-30T18:36:36;94128.94;;;-0.60;100.00
71057;BME280;58380;48.312;9.246;2023-01-30T18:39:04;94160.13;;;-0.53;100.00
71057;BME280;58380;48.312;9.246;2023-01-30T18:41:30;94153.16;;;-0.53;100.00
71057;BME280;58380;48.312;9.246;2023-01-30T18:43:58;94142.19;;;-0.55;100.00
71057;BME280;58380;48.312;9.246;2023-01-30T18:46:25;94149.59;;;-0.52;100.00
71057;BME280;58380;48.312;9.246;2023-01-30T18:48:52;94166.06;;;-0.45;100.00
71057;BME280;58380;48.312;9.246;2023-01-30T18:51:21;94136.75;;;-0.68;100.00
71057;BME280;58380;48.312;9.246;2023-01-30T18:53:52;94133.38;;;-0.69;100.00
71057;BME280;58380;48.312;9.246;2023-01-30T18:56:21;94145.91;;;-0.72;100.00
71057;BME280;58380;48.312;9.246;2023-01-30T18:58:49;94162.34;;;-0.50;100.00
71057;BME280;58380;48.312;9.246;2023-01-30T19:01:22;94145.69;;;-0.71;100.00
71057;BME280;58380;48.312;9.246;2023-01-30T19:03:53;94167.28;;;-0.55;100.00
71057;BME280;58380;48.312;9.246;2023-01-30T19:06:20;94180.63;;;-0.44;100.00
71057;BME280;58380;48.312;9.246;2023-01-30T19:08:45;94190.63;;;-0.40;100.00
71057;BME280;58380;48.312;9.246;2023-01-30T19:11:16;94194.34;;;-0.35;100.00
71057;BME280;58380;48.312;9.246;2023-01-30T19:14:07;94206.84;;;-0.38;100.00
71057;BME280;58380;48.312;9.246;2023-01-30T19:16:34;94182.75;;;-0.62;100.00
71057;BME280;58380;48.312;9.246;2023-01-30T19:19:01;94205.94;;;-0.46;100.00
71057;BME280;58380;48.312;9.246;2023-01-30T19:21:28;94140.03;;;-0.89;100.00
71057;BME280;58380;48.312;9.246;2023-01-30T19:23:54;94186.06;;;-0.53;100.00
71057;BME280;58380;48.312;9.246;2023-01-30T19:26:20;94229.78;;;-0.27;100.00
71057;BME280;58380;48.312;9.246;2023-01-30T19:28:47;94212.66;;;-0.36;100.00
71057;BME280;58380;48.312;9.246;2023-01-30T19:31:16;94243.06;;;-0.30;100.00
71057;BME280;58380;48.312;9.246;2023-01-30T19:33:45;94234.69;;;-0.32;99.75
71057;BME280;58380;48.312;9.246;2023-01-30T19:36:17;94218.00;;;-0.38;99.63
71057;BME280;58380;48.312;9.246;2023-01-30T19:38:46;94240.66;;;-0.32;99.51
71057;BME280;58380;48.312;9.246;2023-01-30T19:41:16;94220.59;;;-0.38;99.79
71057;BME280;58380;48.312;9.246;2023-01-30T19:43:43;94220.84;;;-0.48;100.00
71057;BME280;58380;48.312;9.246;2023-01-30T19:46:09;94256.22;;;-0.32;100.00
71057;BME280;58380;48.312;9.246;2023-01-30T19:48:38;94263.03;;;-0.31;100.00
71057;BME280;58380;48.312;9.246;2023-01-30T19:51:16;94263.38;;;-0.34;100.00
71057;BME280;58380;48.312;9.246;2023-01-30T19:53:56;94258.13;;;-0.26;100.00
71057;BME280;58380;48.312;9.246;2023-01-30T19:56:27;94258.06;;;-0.40;100.00
71057;BME280;58380;48.312;9.246;2023-01-30T19:58:54;94282.63;;;-0.28;100.00
71057;BME280;58380;48.312;9.246;2023-01-30T20:01:22;94262.34;;;-0.48;100.00
71057;BME280;58380;48.312;9.246;2023-01-30T20:03:52;94279.38;;;-0.30;100.00
71057;BME280;58380;48.312;9.246;2023-01-30T20:06:23;94266.06;;;-0.42;99.90
71057;BME280;58380;48.312;9.246;2023-01-30T20:09:17;94277.84;;;-0.39;100.00
71057;BME280;58380;48.312;9.246;2023-01-30T20:11:43;94294.00;;;-0.29;100.00
71057;BME280;58380;48.312;9.246;2023-01-30T20:14:09;94282.84;;;-0.38;100.00
71057;BME280;58380;48.312;9.246;2023-01-30T20:16:35;94288.81;;;-0.29;100.00
71057;BME280;58380;48.312;9.246;2023-01-30T20:19:04;94287.75;;;-0.43;100.00
71057;BME280;58380;48.312;9.246;2023-01-30T20:21:32;94290.59;;;-0.30;100.00
71057;BME280;58380;48.312;9.246;2023-01-30T20:23:58;94288.16;;;-0.31;100.00
71057;BME280;58380;48.312;9.246;2023-01-30T20:26:27;94284.56;;;-0.30;100.00
71057;BME280;58380;48.312;9.246;2023-01-30T20:28:55;94297.47;;;-0.37;100.00
71057;BME280;58380;48.312;9.246;2023-01-30T20:31:22;94302.72;;;-0.30;100.00
71057;BME280;58380;48.312;9.246;2023-01-30T20:33:49;94290.19;;;-0.41;100.00
71057;BME280;58380;48.312;9.246;2023-01-30T20:36:17;94307.63;;;-0.35;100.00
71057;BME280;58380;48.312;9.246;2023-01-30T20:38:45;94310.88;;;-0.33;100.00
71057;BME280;58380;48.312;9.246;2023-01-30T20:41:15;94291.16;;;-0.43;99.98
71057;BME280;58380;48.312;9.246;2023-01-30T20:43:45;94305.97;;;-0.28;99.92
71057;BME280;58380;48.312;9.246;2023-01-30T20:46:18;94309.34;;;-0.28;99.48
71057;BME280;58380;48.312;9.246;2023-01-30T20:48:45;94313.22;;;-0.24;98.95
71057;BME280;58380;48.312;9.246;2023-01-30T20:51:16;94294.06;;;-0.37;98.86
71057;BME280;58380;48.312;9.246;2023-01-30T20:53:54;94321.66;;;-0.22;99.08
71057;BME280;58380;48.312;9.246;2023-01-30T20:56:23;94322.81;;;-0.24;98.89
71057;BME280;58380;48.312;9.246;2023-01-30T20:58:50;94333.63;;;-0.20;98.95
71057;BME280;58380;48.312;9.246;2023-01-30T21:01:18;94326.03;;;-0.22;98.83
71057;BME280;58380;48.312;9.246;2023-01-30T21:03:47;94276.81;;;-0.53;98.80
71057;BME280;58380;48.312;9.246;2023-01-30T21:06:15;94243.25;;;-0.70;98.62
71057;BME280;58380;48.312;9.246;2023-01-30T21:08:43;94276.41;;;-0.42;98.24
71057;BME280;58380;48.312;9.246;2023-01-30T21:11:11;94327.28;;;-0.18;98.52
71057;BME280;58380;48.312;9.246;2023-01-30T21:13:38;94337.50;;;-0.16;98.78
71057;BME280;58380;48.312;9.246;2023-01-30T21:16:12;94337.50;;;-0.16;98.94
71057;BME280;58380;48.312;9.246;2023-01-30T21:18:40;94313.59;;;-0.27;98.45
71057;BME280;58380;48.312;9.246;2023-01-30T21:21:14;94328.72;;;-0.15;98.29
71057;BME280;58380;48.312;9.246;2023-01-30T21:23:43;94296.47;;;-0.36;98.12
71057;BME280;58380;48.312;9.246;2023-01-30T21:26:11;94331.59;;;-0.10;98.33
71057;BME280;58380;48.312;9.246;2023-01-30T21:28:38;94312.16;;;-0.29;98.74
71057;BME280;58380;48.312;9.246;2023-01-30T21:31:14;94300.56;;;-0.41;99.20
71057;BME280;58380;48.312;9.246;2023-01-30T21:33:42;94340.09;;;-0.16;99.08
71057;BME280;58380;48.312;9.246;2023-01-30T21:36:08;94351.28;;;-0.16;99.11
71057;BME280;58380;48.312;9.246;2023-01-30T21:38:35;94323.59;;;-0.24;99.73
71057;BME280;58380;48.312;9.246;2023-01-30T21:41:23;94328.97;;;-0.25;99.75
71057;BME280;58380;48.312;9.246;2023-01-30T21:44:31;94345.00;;;-0.22;99.69
71057;BME280;58380;48.312;9.246;2023-01-30T21:47:01;94344.19;;;-0.22;99.82
71057;BME280;58380;48.312;9.246;2023-01-30T21:49:27;94316.81;;;-0.48;100.00
71057;BME280;58380;48.312;9.246;2023-01-30T21:51:53;94325.44;;;-0.55;100.00
71057;BME280;58380;48.312;9.246;2023-01-30T21:54:20;94353.53;;;-0.36;100.00
71057;BME280;58380;48.312;9.246;2023-01-30T21:56:47;94362.47;;;-0.38;100.00
71057;BME280;58380;48.312;9.246;2023-01-30T21:59:13;94348.16;;;-0.57;100.00
71057;BME280;58380;48.312;9.246;2023-01-30T22:01:39;94318.94;;;-0.74;100.00
71057;BME280;58380;48.312;9.246;2023-01-30T22:04:07;94357.84;;;-0.51;100.00
71057;BME280;58380;48.312;9.246;2023-01-30T22:06:36;94352.44;;;-0.41;100.00
71057;BME280;58380;48.312;9.246;2023-01-30T22:09:03;94358.25;;;-0.39;100.00
71057;BME280;58380;48.312;9.246;2023-01-30T22:11:30;94324.41;;;-0.69;100.00
71057;BME280;58380;48.312;9.246;2023-01-30T22:13:56;94357.63;;;-0.41;100.00
71057;BME280;58380;48.312;9.246;2023-01-30T22:16:24;94347.47;;;-0.51;100.00
